Detall de PIREP

Printer-friendly versionPDF version

[2016/01/03 09:59:00]
Flight IATA:CT1004
Pilot Number:012
Company ICAO:CAT
Aircraft Type:B738/F
PAX:148
Departing Airport: LWSK
Destination Airport: LIEA
Alternate Airport:LIEO
Online: VATSIM
Route:GOSTI UP92 BRD UM603 SOR UM620 POKAV UM603 MOROB
Flight Level:F350
No Slew and time accel
No pause
Crash detect
Detect pilot in Cockpit between each 30 and 45 minutes
09:59 Zero fuel Weight: 125395 Lbs, Fuel Weight: 18606 Lbs
09:59 VATSIM:LWSK 030900Z 27001KT 7000 OVC020 M00/M04 Q1014 NOSIG
09:59 VATSIM:LIEA 030920Z 29009KT 250V330 9999 SCT035 14/07 Q1014
09:59 X-MAS CHARTER
10:00 Parking Brakes off
10:04 Take-off
10:04 Take off Weight: 143468 Lbs
10:04 Wind: 247º @ 001 Knots Heading: 345º
10:04 POS N41º 58´ 02´´ E021º 37´ 09´´
10:04 Gear Up: 159 Knots
10:04 Flaps:3 at 159 Knots
10:04 Flaps:2 at 190 Knots
10:04 Flaps:1 at 198 Knots
10:06 Flaps:0 at 214 Knots
10:19 Wind:218º@040 Knots Heading: 244º Ground Speed: 432 Knots Altitude 29599 ft
10:22 TOC
10:22 Fuel Weight: 14399 Lb
10:34 Wind:260º@042 Knots Heading: 254º Ground Speed: 419 Knots Altitude 34809 ft
10:49 Wind:295º@053 Knots Heading: 272º Ground Speed: 412 Knots Altitude 34783 ft
11:04 Wind:315º@069 Knots Heading: 284º Ground Speed: 404 Knots Altitude 34826 ft
11:19 Wind:324º@080 Knots Heading: 281º Ground Speed: 406 Knots Altitude 34832 ft
11:22 TOD
11:22 Fuel Weight: 8926 Lb
11:34 Wind:298º@044 Knots Heading: 268º Ground Speed: 324 Knots Altitude 15748 ft
11:43 Flaps:1 at 218 Knots
11:43 Flaps:2 at 209 Knots
11:44 Flaps:3 at 194 Knots
11:45 Flaps:4 at 187 Knots
11:46 Gear Down: 180 Knots
11:46 Flaps:5 at 180 Knots
11:46 Flaps:6 at 167 Knots
11:47 Flaps:7 at 149 Knots
11:47 Flaps:8 at 150 Knots
11:49 Wind:268º@012 Knots Heading: 208º Ground Speed: 137 Knots Altitude 1397 ft
11:50 TouchDown:Rate -263 ft/min Speed: 126 Knots
11:51 VATSIM:LIEA 031120Z 27012KT 9999 SCT035 15/07 Q1013
11:51 Land
11:51 Wind:268º@012 Knots
11:51 Heading: 200º
11:51 Flight Duration: 01:47
11:51 Landing Weight: 132448 Lbs
11:51 POS N40º 37´ 46´´ E008º 17´ 20´´
11:53 Parking brakes on
11:53 Block to Block Duration: 01:53
11:53 Final Fuel: 6880 Lbls
11:53 Spent Fuel: 11726 Lbls
11:53 Flight Length: 652 NM
11:53 TOD Land Length: 133 NM

Exportar CSV

Powered by Drupal - Modified by Danger4k